| time (UTC) | temp F | wind direction | speed MPH | gust MPH | rain 1hr in | rain 24hr in | rain mn in | humidity % | barometer mb |
| 20260509184558 | 63 | 197 | 4.0 | 8.0 | 0.00 | 0.00 | 0.00 | 37 | 1017.3 |
| 20260509183053 | 62 | 0 | 5.0 | 9.0 | 0.00 | 0.00 | 0.00 | 37 | 1017.3 |
| 20260509181600 | 63 | 279 | 2.0 | 9.0 | 0.00 | 0.00 | 0.00 | 37 | 1017.1 |
| 20260509180104 | 62 | 128 | 3.0 | 7.0 | 0.00 | 0.00 | 0.00 | 38 | 1017.1 |
| 20260509174552 | 61 | 71 | 5.0 | 11.0 | 0.00 | 0.00 | 0.00 | 39 | 1017.1 |
| 20260509173102 | 61 | 25 | 6.0 | 11.0 | 0.00 | 0.00 | 0.00 | 38 | 1017.0 |
| 20260509171553 | 61 | 68 | 3.0 | 8.0 | 0.00 | 0.00 | 0.00 | 39 | 1017.0 |
| 20260509170058 | 62 | 83 | 3.0 | 7.0 | 0.00 | 0.00 | 0.00 | 37 | 1016.8 |
| 20260509164602 | 63 | 136 | 2.0 | 6.0 | 0.00 | 0.00 | 0.00 | 38 | 1016.7 |
| 20260509163057 | 64 | 0 | 1.0 | 5.0 | 0.00 | 0.00 | 0.00 | 37 | 1016.8 |
| 20260509161558 | 62 | 0 | 0.0 | 5.0 | 0.00 | 0.00 | 0.00 | 40 | 1016.6 |
| 20260509160055 | 61 | 227 | 2.0 | 4.0 | 0.00 | 0.00 | 0.00 | 42 | 1016.4 |
| 20260509154553 | 61 | 211 | 0.0 | 3.0 | 0.00 | 0.00 | 0.00 | 41 | 1016.2 |
| 20260509153054 | 60 | 0 | 1.0 | 4.0 | 0.00 | 0.00 | 0.00 | 43 | 1016.2 |
| 20260509151604 | 58 | 92 | 1.0 | 4.0 | 0.00 | 0.00 | 0.00 | 44 | 1016.0 |
| 20260509150054 | 57 | 92 | 2.0 | 6.0 | 0.00 | 0.00 | 0.00 | 46 | 1015.9 |
| 20260509144554 | 57 | 51 | 2.0 | 4.0 | 0.00 | 0.00 | 0.00 | 46 | 1016.0 |
| 20260509143055 | 57 | 103 | 2.0 | 5.0 | 0.00 | 0.00 | 0.00 | 47 | 1015.8 |
| 20260509141554 | 54 | 32 | 4.0 | 8.0 | 0.00 | 0.00 | 0.00 | 50 | 1015.6 |
| 20260509140053 | 53 | 61 | 3.0 | 8.0 | 0.00 | 0.00 | 0.00 | 51 | 1015.4 |
| 20260509134556 | 52 | 36 | 4.0 | 9.0 | 0.00 | 0.00 | 0.00 | 52 | 1015.4 |
| 20260509133102 | 52 | 45 | 4.0 | 7.0 | 0.00 | 0.00 | 0.00 | 54 | 1015.2 |
| 20260509131559 | 51 | 360 | 2.0 | 3.0 | 0.00 | 0.00 | 0.00 | 53 | 1015.0 |
| 20260509130105 | 51 | 360 | 0.0 | 2.0 | 0.00 | 0.00 | 0.00 | 54 | 1014.9 |
| 20260509124556 | 50 | 360 | 2.0 | 5.0 | 0.00 | 0.00 | 0.00 | 54 | 1014.8 |
| 20260509123057 | 51 | 26 | 1.0 | 5.0 | 0.00 | 0.00 | 0.00 | 53 | 1014.7 |
| 20260509121555 | 51 | 355 | 3.0 | 9.0 | 0.00 | 0.00 | 0.00 | 54 | 1014.4 |
| 20260509120059 | 51 | 245 | 4.0 | 7.0 | 0.00 | 0.00 | 0.00 | 54 | 1013.9 |
| 20260509114551 | 50 | 0 | 0.0 | 6.0 | 0.00 | 0.00 | 0.00 | 54 | 1013.9 |
| 20260509113052 | 50 | 0 | 1.0 | 3.0 | 0.00 | 0.00 | 0.00 | 55 | 1013.9 |
| 20260509111556 | 51 | 303 | 0.0 | 3.0 | 0.00 | 0.00 | 0.00 | 54 | 1013.7 |
| 20260509110056 | 51 | 0 | 0.0 | 2.0 | 0.00 | 0.00 | 0.00 | 53 | 1013.5 |
| 20260509104554 | 51 | 303 | 0.0 | 4.0 | 0.00 | 0.00 | 0.00 | 53 | 1013.4 |
| 20260509103054 | 51 | 303 | 2.0 | 5.0 | 0.00 | 0.00 | 0.00 | 53 | 1013.4 |
| 20260509101552 | 51 | 303 | 2.0 | 5.0 | 0.00 | 0.00 | 0.00 | 53 | 1013.2 |
| 20260509100052 | 51 | 305 | 3.0 | 7.0 | 0.00 | 0.00 | 0.00 | 53 | 1013.1 |
| 20260509094553 | 51 | 348 | 3.0 | 6.0 | 0.00 | 0.00 | 0.00 | 53 | 1012.9 |
| 20260509093054 | 51 | 348 | 2.0 | 4.0 | 0.00 | 0.00 | 0.00 | 51 | 1012.8 |
| 20260509091600 | 52 | 348 | 2.0 | 4.0 | 0.00 | 0.00 | 0.00 | 50 | 1012.9 |
| 20260509090053 | 53 | 348 | 3.0 | 6.0 | 0.00 | 0.00 | 0.00 | 50 | 1012.5 |
| 20260509084551 | 53 | 321 | 2.0 | 4.0 | 0.00 | 0.00 | 0.00 | 50 | 1012.4 |
| 20260509083054 | 53 | 321 | 3.0 | 7.0 | 0.00 | 0.00 | 0.00 | 49 | 1012.3 |
| 20260509081554 | 54 | 309 | 2.0 | 4.0 | 0.00 | 0.00 | 0.00 | 48 | 1012.4 |
| 20260509080106 | 55 | 309 | 1.0 | 7.0 | 0.00 | 0.00 | 0.00 | 47 | 1012.2 |
| 20260509074557 | 56 | 319 | 4.0 | 9.0 | 0.00 | 0.00 | 0.00 | 46 | 1012.2 |
| 20260509073057 | 56 | 281 | 5.0 | 8.0 | 0.00 | 0.00 | 0.00 | 46 | 1012.1 |
| 20260509071559 | 56 | 304 | 5.0 | 10.0 | 0.00 | 0.00 | 0.00 | 46 | 1012.0 |
| 20260509064555 | 56 | 355 | 3.0 | 6.0 | 0.00 | 0.00 | 0.00 | 45 | 1011.7 |
| 20260509063053 | 57 | 360 | 2.0 | 9.0 | 0.00 | 0.00 | 0.00 | 44 | 1011.5 |
| 20260509061614 | 57 | 5 | 3.0 | 9.0 | 0.00 | 0.00 | 0.00 | 42 | 1011.3 |
| 20260509060115 | 58 | 42 | 4.0 | 10.0 | 0.00 | 0.00 | 0.00 | 40 | 1011.0 |
| 20260509054556 | 59 | 26 | 5.0 | 12.0 | 0.00 | 0.00 | 0.00 | 38 | 1011.0 |
| 20260509053054 | 60 | 5 | 8.0 | 15.0 | 0.00 | 0.00 | 0.00 | 36 | 1010.9 |
| 20260509051558 | 61 | 17 | 5.0 | 10.0 | 0.00 | 0.00 | 0.00 | 32 | 1010.7 |
| 20260509050134 | 63 | 360 | 3.0 | 10.0 | 0.00 | 0.00 | 0.00 | 29 | 1010.6 |
| 20260509044602 | 64 | 315 | 3.0 | 11.0 | 0.00 | 0.00 | 0.00 | 27 | 1010.6 |
| 20260509043054 | 63 | 274 | 6.0 | 18.0 | 0.00 | 0.00 | 0.00 | 27 | 1010.2 |
| 20260509041554 | 61 | 265 | 7.0 | 12.0 | 0.00 | 0.00 | 0.00 | 29 | 1010.0 |
| 20260509040058 | 62 | 315 | 4.0 | 9.0 | 0.00 | 0.00 | 0.00 | 29 | 1009.8 |
| 20260509034552 | 63 | 292 | 4.0 | 8.0 | 0.00 | 0.00 | 0.00 | 27 | 1009.5 |
| 20260509033057 | 63 | 319 | 3.0 | 7.0 | 0.00 | 0.00 | 0.00 | 27 | 1009.4 |
| 20260509031556 | 63 | 311 | 2.0 | 8.0 | 0.00 | 0.00 | 0.00 | 27 | 1009.0 |
| 20260509030054 | 65 | 5 | 2.0 | 8.0 | 0.00 | 0.00 | 0.00 | 25 | 1008.8 |
| 20260509024553 | 66 | 30 | 3.0 | 9.0 | 0.00 | 0.00 | 0.00 | 25 | 1008.5 |
| 20260509023102 | 67 | 35 | 4.0 | 12.0 | 0.00 | 0.00 | 0.00 | 24 | 1008.2 |
| 20260509021554 | 68 | 360 | 7.0 | 15.0 | 0.00 | 0.00 | 0.00 | 23 | 1008.0 |
| 20260509020057 | 69 | 5 | 8.0 | 15.0 | 0.00 | 0.00 | 0.00 | 23 | 1007.9 |
| 20260509014554 | 69 | 351 | 8.0 | 18.0 | 0.00 | 0.00 | 0.00 | 23 | 1007.8 |
| 20260509013100 | 70 | 92 | 7.0 | 17.0 | 0.00 | 0.00 | 0.00 | 22 | 1007.8 |
| 20260509011601 | 71 | 355 | 9.0 | 19.0 | 0.00 | 0.00 | 0.00 | 22 | 1007.9 |
| 20260509010054 | 71 | 13 | 10.0 | 23.0 | 0.00 | 0.00 | 0.00 | 22 | 1007.8 |
| 20260509004553 | 72 | 319 | 11.0 | 21.0 | 0.00 | 0.00 | 0.00 | 19 | 1007.7 |
| 20260509003104 | 72 | 297 | 14.0 | 25.0 | 0.00 | 0.00 | 0.00 | 20 | 1007.7 |
| 20260509001553 | 72 | 311 | 13.0 | 25.0 | 0.00 | 0.00 | 0.00 | 19 | 1007.7 |
| 20260509000103 | 72 | 320 | 15.0 | 26.0 | 0.00 | 0.00 | 0.00 | 19 | 1007.7 |
| 20260508234558 | 73 | 334 | 15.0 | 24.0 | 0.00 | 0.00 | 0.00 | 18 | 1007.6 |
| 20260508233054 | 73 | 278 | 16.0 | 27.0 | 0.00 | 0.00 | 0.00 | 18 | 1007.6 |
| 20260508231554 | 73 | 301 | 19.0 | 31.0 | 0.00 | 0.00 | 0.00 | 17 | 1007.6 |
| 20260508230105 | 73 | 325 | 14.0 | 28.0 | 0.00 | 0.00 | 0.00 | 17 | 1007.7 |
| 20260508224555 | 73 | 313 | 16.0 | 27.0 | 0.00 | 0.00 | 0.00 | 17 | 1007.7 |
| 20260508223143 | 74 | 304 | 19.0 | 29.0 | 0.00 | 0.00 | 0.00 | 18 | 1007.7 |
| 20260508221554 | 73 | 293 | 15.0 | 30.0 | 0.00 | 0.00 | 0.00 | 19 | 1007.8 |
| 20260508220055 | 74 | 311 | 16.0 | 31.0 | 0.00 | 0.00 | 0.00 | 19 | 1007.8 |
| 20260508214601 | 73 | 308 | 16.0 | 33.0 | 0.00 | 0.00 | 0.00 | 19 | 1007.8 |
| 20260508213054 | 74 | 313 | 16.0 | 28.0 | 0.00 | 0.00 | 0.00 | 17 | 1007.8 |
| 20260508211557 | 74 | 321 | 11.0 | 31.0 | 0.00 | 0.00 | 0.00 | 18 | 1007.9 |
| 20260508210055 | 74 | 288 | 17.0 | 31.0 | 0.00 | 0.00 | 0.00 | 17 | 1007.9 |
| 20260508204603 | 73 | 309 | 18.0 | 30.0 | 0.00 | 0.00 | 0.00 | 18 | 1008.0 |
| 20260508203054 | 74 | 321 | 15.0 | 32.0 | 0.00 | 0.00 | 0.00 | 17 | 1008.0 |
| 20260508201556 | 74 | 269 | 16.0 | 27.0 | 0.00 | 0.00 | 0.00 | 19 | 1008.0 |
| 20260508200055 | 74 | 276 | 13.0 | 24.0 | 0.00 | 0.00 | 0.00 | 18 | 1008.1 |
| 20260508194623 | 73 | 271 | 13.0 | 20.0 | 0.00 | 0.00 | 0.00 | 19 | 1008.0 |
| 20260508193056 | 72 | 254 | 8.0 | 18.0 | 0.00 | 0.00 | 0.00 | 24 | 1008.5 |
| 20260508191553 | 72 | 246 | 12.0 | 21.0 | 0.00 | 0.00 | 0.00 | 24 | 1008.7 |
| 20260508190051 | 71 | 298 | 13.0 | 22.0 | 0.00 | 0.00 | 0.00 | 24 | 1009.0 |